Time;durP1;ratioP1;P1;durP2;ratioP2;P2;SDS_P1;SDS_P2;PMS_P1;PMS_P2;Temp;Humidity;BMP_temperature;BMP_pressure;BME280_temperature;BME280_humidity;BME280_pressure;Samples;Min_cycle;Max_cycle;Signal;HPM_P1;HPM_P2
2023/04/25 03:00:54;;;;;;;8.80;8.30;;;7.00;99.90;;;;;;5751060;23;20236;-76
2023/04/25 03:03:23;;;;;;;8.83;8.33;;;7.00;99.90;;;;;;4972333;28;20563;-76
2023/04/25 03:05:50;;;;;;;10.90;10.30;;;7.00;99.90;;;;;;4971903;28;20183;-75
2023/04/25 03:08:16;;;;;;;14.60;13.60;;;7.00;99.90;;;;;;4973204;28;20679;-76
2023/04/25 03:10:42;;;;;;;14.07;13.27;;;6.90;99.90;;;;;;4967655;28;20210;-76
2023/04/25 03:13:08;;;;;;;12.73;11.83;;;6.90;99.90;;;;;;4952890;28;20221;-76
2023/04/25 03:15:35;;;;;;;13.93;13.13;;;6.90;99.90;;;;;;4990114;23;20320;-77
2023/04/25 03:18:01;;;;;;;22.30;21.13;;;6.90;99.90;;;;;;4982260;28;20189;-77
2023/04/25 03:20:27;;;;;;;24.03;22.73;;;6.90;99.90;;;;;;4980477;28;20187;-76
2023/04/25 03:22:53;;;;;;;23.60;22.33;;;6.90;99.90;;;;;;4984712;28;20185;-75
2023/04/25 03:25:18;;;;;;;10.67;10.03;;;7.00;99.90;;;;;;4973465;28;20607;-76
2023/04/25 03:27:44;;;;;;;10.43;9.57;;;7.00;99.90;;;;;;4966180;28;20305;-79
2023/04/25 03:30:10;;;;;;;13.23;12.13;;;7.10;99.90;;;;;;4956930;28;20188;-79
2023/04/25 03:32:36;;;;;;;13.37;12.50;;;7.10;99.90;;;;;;4968017;28;20216;-78
2023/04/25 03:35:03;;;;;;;13.67;12.83;;;7.20;99.90;;;;;;4965103;28;20177;-77
2023/04/25 03:37:28;;;;;;;9.13;8.53;;;7.20;99.90;;;;;;4965890;29;20240;-76
2023/04/25 03:39:54;;;;;;;10.07;9.47;;;7.20;99.90;;;;;;4958633;28;20277;-78
2023/04/25 03:42:22;;;;;;;7.10;6.70;;;7.20;99.90;;;;;;4963580;29;20197;-76
2023/04/25 03:44:48;;;;;;;7.03;6.57;;;7.10;99.90;;;;;;4964122;28;20181;-76
2023/04/25 03:47:14;;;;;;;8.37;7.83;;;7.20;99.90;;;;;;4961834;29;20233;-75
2023/04/25 03:49:41;;;;;;;8.93;8.43;;;7.20;99.90;;;;;;4954839;28;20182;-77
2023/04/25 03:52:07;;;;;;;9.20;8.40;;;7.20;99.90;;;;;;4939561;28;20238;-72
2023/04/25 03:54:33;;;;;;;8.33;7.83;;;7.20;99.90;;;;;;4932960;29;20224;-72
2023/04/25 03:56:59;;;;;;;9.70;9.00;;;7.20;99.90;;;;;;4932464;29;20210;-72
2023/04/25 03:59:25;;;;;;;10.27;9.50;;;7.20;99.90;;;;;;4932991;29;20276;-72
2023/04/25 04:01:52;;;;;;;15.13;14.03;;;7.20;99.90;;;;;;4933765;28;20190;-72
2023/04/25 04:04:18;;;;;;;10.10;9.50;;;7.10;99.90;;;;;;4938005;28;20209;-73
2023/04/25 04:06:44;;;;;;;10.80;9.90;;;7.20;99.90;;;;;;4939517;29;20251;-74
2023/04/25 04:09:11;;;;;;;10.20;9.57;;;7.20;99.90;;;;;;4951045;29;20276;-74
2023/04/25 04:11:38;;;;;;;9.70;9.10;;;7.20;99.90;;;;;;4956492;28;20186;-72
2023/04/25 04:14:07;;;;;;;10.77;10.07;;;7.20;99.90;;;;;;4955990;28;20563;-73
2023/04/25 04:16:33;;;;;;;13.70;12.77;;;7.30;99.90;;;;;;4956000;28;20715;-73
2023/04/25 04:18:59;;;;;;;15.43;14.53;;;7.40;99.90;;;;;;4954742;29;20615;-72
2023/04/25 04:21:27;;;;;;;8.57;7.87;;;7.40;99.90;;;;;;4955889;29;20182;-73
2023/04/25 04:23:54;;;;;;;9.47;8.83;;;7.50;99.90;;;;;;4955842;29;20288;-73
2023/04/25 04:26:23;;;;;;;17.30;16.23;;;7.50;99.90;;;;;;4954111;28;20201;-73
2023/04/25 04:28:50;;;;;;;22.53;21.23;;;7.50;99.90;;;;;;4955346;28;20682;-73
2023/04/25 04:31:19;;;;;;;26.03;24.63;;;7.50;99.90;;;;;;4955846;28;20206;-73
2023/04/25 04:33:45;;;;;;;17.37;16.30;;;7.50;99.90;;;;;;4955377;28;20218;-73
2023/04/25 04:36:11;;;;;;;16.57;15.57;;;7.60;99.90;;;;;;4954302;28;20682;-73
2023/04/25 04:38:37;;;;;;;15.27;14.10;;;7.70;99.90;;;;;;4955197;28;20181;-73
2023/04/25 04:41:03;;;;;;;13.03;11.90;;;7.70;99.90;;;;;;4955149;29;20180;-73
2023/04/25 04:43:29;;;;;;;6.93;6.33;;;7.80;99.90;;;;;;4955845;29;20190;-74
2023/04/25 04:45:58;;;;;;;7.73;6.97;;;7.80;99.90;;;;;;4954110;28;20205;-74
2023/04/25 04:48:24;;;;;;;12.23;11.20;;;7.80;99.90;;;;;;4954522;28;20185;-74
2023/04/25 04:50:50;;;;;;;10.20;9.50;;;7.90;99.90;;;;;;4953901;29;20240;-74
2023/04/25 04:53:16;;;;;;;9.67;9.17;;;7.90;99.90;;;;;;4955571;29;20233;-75
2023/04/25 04:55:42;;;;;;;10.70;10.00;;;8.00;99.90;;;;;;4954755;28;20202;-75
2023/04/25 04:58:08;;;;;;;11.20;10.60;;;8.00;99.90;;;;;;4953807;29;20189;-73
2023/04/25 05:00:34;;;;;;;13.20;12.00;;;8.10;99.90;;;;;;4955064;29;20182;-74
2023/04/25 05:03:00;;;;;;;13.37;12.17;;;8.20;99.90;;;;;;4954871;29;20249;-74
2023/04/25 05:05:26;;;;;;;14.60;13.27;;;8.20;99.90;;;;;;4953825;28;20354;-74
2023/04/25 05:07:52;;;;;;;17.10;16.00;;;8.30;99.90;;;;;;4953474;29;20307;-74
2023/04/25 05:10:19;;;;;;;9.73;8.93;;;8.50;99.90;;;;;;4954640;29;20197;-73
2023/04/25 05:12:45;;;;;;;17.60;16.50;;;8.50;99.90;;;;;;4955098;29;20249;-75
2023/04/25 05:15:11;;;;;;;13.43;12.53;;;8.50;99.90;;;;;;4953771;29;20235;-75
2023/04/25 05:17:38;;;;;;;11.03;10.20;;;8.60;99.90;;;;;;4954711;28;20563;-73
2023/04/25 05:20:06;;;;;;;11.80;10.70;;;8.60;99.90;;;;;;4955411;29;20595;-74
2023/04/25 05:22:32;;;;;;;11.43;10.53;;;8.70;99.90;;;;;;4951871;28;20210;-74
2023/04/25 05:24:58;;;;;;;11.70;10.97;;;8.70;99.90;;;;;;4953874;29;20221;-74
2023/04/25 05:27:24;;;;;;;10.97;10.17;;;8.70;99.90;;;;;;4953540;28;20209;-74
2023/04/25 05:29:50;;;;;;;8.60;8.10;;;8.80;99.90;;;;;;4948660;28;20605;-74
2023/04/25 05:32:15;;;;;;;9.23;8.43;;;8.90;99.90;;;;;;4953693;28;20560;-74
2023/04/25 05:34:41;;;;;;;8.47;7.90;;;9.00;99.90;;;;;;4935708;29;20187;-74
2023/04/25 05:37:07;;;;;;;6.37;5.77;;;9.20;99.90;;;;;;4948841;29;20202;-75
2023/04/25 05:39:33;;;;;;;9.33;8.70;;;9.40;99.90;;;;;;4954468;29;20189;-75
2023/04/25 05:41:59;;;;;;;14.13;13.10;;;9.60;99.90;;;;;;4954087;29;20241;-75
2023/04/25 05:44:24;;;;;;;23.53;22.27;;;9.80;99.90;;;;;;4953459;29;20201;-75
2023/04/25 05:46:50;;;;;;;18.33;17.13;;;9.90;99.90;;;;;;4953946;28;20201;-75
2023/04/25 05:49:16;;;;;;;11.57;10.87;;;10.00;99.90;;;;;;4953459;29;20182;-75
2023/04/25 05:51:42;;;;;;;6.33;5.90;;;10.00;99.90;;;;;;4953127;29;20178;-74
2023/04/25 05:54:07;;;;;;;6.23;5.83;;;10.10;99.90;;;;;;4955007;29;20186;-74
2023/04/25 05:56:33;;;;;;;6.43;5.90;;;10.10;99.90;;;;;;4954881;28;20622;-74
2023/04/25 05:58:59;;;;;;;9.63;9.07;;;10.20;99.90;;;;;;4953649;28;20224;-74
2023/04/25 06:01:25;;;;;;;28.20;26.80;;;10.40;99.90;;;;;;4953462;28;20185;-75
2023/04/25 06:03:52;;;;;;;30.93;29.23;;;10.40;99.90;;;;;;4953263;29;20189;-75
2023/04/25 06:06:18;;;;;;;33.83;31.93;;;10.40;99.90;;;;;;4954238;28;20207;-75
2023/04/25 06:08:44;;;;;;;34.23;32.47;;;10.30;99.90;;;;;;4952677;28;20240;-75
2023/04/25 06:11:11;;;;;;;26.17;24.80;;;10.40;99.90;;;;;;4952840;28;20182;-75
2023/04/25 06:13:36;;;;;;;26.77;25.37;;;10.40;99.90;;;;;;4952898;28;20256;-75
2023/04/25 06:16:02;;;;;;;28.00;26.60;;;10.60;99.90;;;;;;4953993;28;20261;-75
2023/04/25 06:18:28;;;;;;;15.43;14.43;;;10.60;99.90;;;;;;4954087;29;20185;-74
2023/04/25 06:20:54;;;;;;;7.03;6.53;;;10.70;99.90;;;;;;4954007;29;20354;-75
2023/04/25 06:23:20;;;;;;;7.53;7.03;;;10.60;99.90;;;;;;4953978;29;20193;-74
2023/04/25 06:25:46;;;;;;;10.23;9.63;;;10.60;99.90;;;;;;4953811;28;20216;-74
2023/04/25 06:28:11;;;;;;;10.83;10.10;;;10.50;99.90;;;;;;4953773;29;20642;-76
2023/04/25 06:30:37;;;;;;;21.67;20.30;;;10.50;99.90;;;;;;4953936;29;20297;-75
2023/04/25 06:33:03;;;;;;;27.67;26.13;;;10.10;99.90;;;;;;4952235;29;20297;-74
2023/04/25 06:35:28;;;;;;;8.83;8.03;;;10.00;99.90;;;;;;4952633;28;20181;-75
2023/04/25 06:37:54;;;;;;;7.40;6.90;;;9.70;99.90;;;;;;4953582;29;20554;-75
2023/04/25 06:40:20;;;;;;;10.17;9.30;;;9.60;99.90;;;;;;4953864;29;20189;-75
2023/04/25 06:42:46;;;;;;;24.43;23.10;;;9.60;99.90;;;;;;4953740;29;20189;-74
2023/04/25 06:45:11;;;;;;;31.43;29.23;;;9.50;99.90;;;;;;4953809;28;20181;-75
2023/04/25 06:47:37;;;;;;;29.00;27.37;;;9.50;99.90;;;;;;4951845;28;20288;-75
2023/04/25 06:50:04;;;;;;;15.00;14.00;;;9.50;99.90;;;;;;4945264;28;20190;-75
2023/04/25 06:52:29;;;;;;;10.47;9.77;;;9.60;99.90;;;;;;4948536;29;20213;-75
2023/04/25 06:54:55;;;;;;;7.53;6.93;;;9.80;99.90;;;;;;4938492;29;20237;-76
2023/04/25 06:57:21;;;;;;;14.03;13.23;;;10.00;99.90;;;;;;4951195;28;20202;-75
2023/04/25 06:59:47;;;;;;;29.53;28.03;;;10.30;99.90;;;;;;4952300;29;20174;-75
2023/04/25 07:02:13;;;;;;;19.93;18.80;;;10.60;99.90;;;;;;4951903;29;20545;-75
2023/04/25 07:04:39;;;;;;;12.47;11.80;;;10.90;99.90;;;;;;4952521;29;20193;-75
2023/04/25 07:07:05;;;;;;;8.00;7.60;;;11.30;99.90;;;;;;4951257;28;20201;-75
2023/04/25 07:09:33;;;;;;;9.83;9.23;;;12.00;99.90;;;;;;4950846;28;20188;-75
2023/04/25 07:12:01;;;;;;;15.67;14.57;;;12.50;99.90;;;;;;4952280;28;20255;-75
2023/04/25 07:14:27;;;;;;;6.60;6.20;;;13.00;99.90;;;;;;4952520;28;20196;-75
2023/04/25 07:16:56;;;;;;;7.50;6.97;;;13.20;99.90;;;;;;4952274;28;20209;-75
2023/04/25 07:19:23;;;;;;;11.70;11.00;;;13.30;99.90;;;;;;4951165;28;20198;-75
2023/04/25 07:21:49;;;;;;;30.63;29.00;;;13.50;99.90;;;;;;4951430;29;20185;-75
2023/04/25 07:24:15;;;;;;;26.40;25.10;;;13.30;99.90;;;;;;4951644;28;20181;-75
2023/04/25 07:26:41;;;;;;;16.80;15.97;;;12.60;99.90;;;;;;4951034;28;20209;-75
2023/04/25 07:29:07;;;;;;;8.13;7.63;;;12.00;99.90;;;;;;4952252;29;20185;-75
2023/04/25 07:31:33;;;;;;;10.60;9.90;;;11.50;99.90;;;;;;4952501;28;20186;-75
2023/04/25 07:33:59;;;;;;;8.63;8.13;;;11.10;99.90;;;;;;4950910;28;20216;-74
2023/04/25 07:36:26;;;;;;;8.43;7.83;;;10.90;99.90;;;;;;4952306;28;20205;-74
2023/04/25 07:38:52;;;;;;;12.37;11.60;;;10.70;99.90;;;;;;4952099;28;20181;-75
2023/04/25 07:41:17;;;;;;;10.83;10.23;;;10.70;99.90;;;;;;4952060;28;20236;-75
2023/04/25 07:43:43;;;;;;;10.03;9.53;;;10.70;99.90;;;;;;4951814;28;20203;-75
2023/04/25 07:46:09;;;;;;;8.17;7.57;;;10.70;99.90;;;;;;4953300;28;20243;-74
2023/04/25 07:48:35;;;;;;;7.57;7.07;;;10.80;99.90;;;;;;4953066;28;20185;-74
2023/04/25 07:51:00;;;;;;;8.83;8.30;;;10.90;99.90;;;;;;4952210;29;20189;-75
2023/04/25 07:53:26;;;;;;;8.60;8.13;;;10.90;99.90;;;;;;4949771;29;20677;-74
2023/04/25 07:55:52;;;;;;;8.57;8.07;;;11.00;99.90;;;;;;4950866;28;20212;-74
2023/04/25 07:58:21;;;;;;;8.63;8.13;;;11.10;99.90;;;;;;4952212;28;20174;-74
2023/04/25 08:00:48;;;;;;;9.17;8.57;;;11.20;99.90;;;;;;4950641;28;20189;-76
2023/04/25 08:03:13;;;;;;;7.00;6.57;;;11.10;99.90;;;;;;4951712;29;20186;-76
2023/04/25 08:05:39;;;;;;;12.17;11.47;;;10.90;99.90;;;;;;4950751;28;20602;-76
2023/04/25 08:08:06;;;;;;;12.53;11.83;;;10.80;99.90;;;;;;4948407;28;20193;-76
2023/04/25 08:10:32;;;;;;;12.47;11.67;;;10.70;99.90;;;;;;4946105;28;20541;-76
2023/04/25 08:12:59;;;;;;;10.93;9.90;;;10.80;99.90;;;;;;4951625;29;20295;-74
2023/04/25 08:15:26;;;;;;;8.83;8.17;;;10.70;99.90;;;;;;4951002;28;20189;-75
2023/04/25 08:17:51;;;;;;;7.87;7.27;;;10.60;99.90;;;;;;4951741;28;20293;-74
2023/04/25 08:20:18;;;;;;;7.20;6.60;;;10.60;99.90;;;;;;4952151;28;20945;-75
2023/04/25 08:22:43;;;;;;;7.50;6.90;;;10.50;99.90;;;;;;4950314;29;20190;-74
2023/04/25 08:25:09;;;;;;;7.07;6.57;;;10.60;99.90;;;;;;4954248;28;20221;-74
2023/04/25 08:27:35;;;;;;;7.43;6.87;;;10.60;99.90;;;;;;4968383;28;20201;-74
2023/04/25 08:30:03;;;;;;;7.07;6.57;;;10.70;99.90;;;;;;4971101;28;20216;-74
2023/04/25 08:32:29;;;;;;;7.20;6.53;;;10.80;99.90;;;;;;4969883;28;20240;-74
2023/04/25 08:34:55;;;;;;;7.50;7.00;;;10.80;99.90;;;;;;4969797;28;20185;-76
2023/04/25 08:37:21;;;;;;;7.20;6.70;;;10.80;99.90;;;;;;4969662;28;20192;-74
2023/04/25 08:39:48;;;;;;;8.07;7.47;;;10.90;99.90;;;;;;4971088;28;20606;-74
2023/04/25 08:42:15;;;;;;;12.70;11.77;;;10.80;99.90;;;;;;4971402;28;20275;-74
2023/04/25 08:44:40;;;;;;;26.77;25.33;;;10.60;99.90;;;;;;4970812;28;20189;-74
2023/04/25 08:47:06;;;;;;;22.67;21.33;;;10.50;99.90;;;;;;4969663;28;20201;-74
2023/04/25 08:49:33;;;;;;;10.37;9.77;;;10.40;99.90;;;;;;4971561;28;20251;-75
2023/04/25 08:52:01;;;;;;;10.57;9.77;;;10.20;99.90;;;;;;4973559;28;20196;-76
2023/04/25 08:54:31;;;;;;;13.77;12.70;;;10.10;99.90;;;;;;4974575;28;20224;-75
2023/04/25 08:56:58;;;;;;;82.47;77.87;;;9.70;99.90;;;;;;4972768;28;20204;-76
2023/04/25 08:59:24;;;;;;;65.47;61.83;;;9.30;99.90;;;;;;4974165;28;21084;-75
2023/04/25 09:01:51;;;;;;;15.43;14.17;;;9.00;99.90;;;;;;4975195;28;20177;-74
2023/04/25 09:04:20;;;;;;;12.90;11.93;;;8.80;99.90;;;;;;4978151;28;20177;-76
2023/04/25 09:06:46;;;;;;;19.27;17.80;;;8.60;99.90;;;;;;4979993;28;20204;-76
2023/04/25 09:09:12;;;;;;;15.90;14.80;;;8.50;99.90;;;;;;4975100;28;20534;-77
2023/04/25 09:11:38;;;;;;;20.90;19.43;;;8.40;99.90;;;;;;4974041;28;20232;-77
2023/04/25 09:14:30;;;;;;;12.77;11.73;;;8.40;99.90;;;;;;4973547;28;20244;-77
2023/04/25 09:16:56;;;;;;;12.07;11.13;;;8.40;99.90;;;;;;5003744;23;20235;-78
2023/04/25 09:19:27;;;;;;;13.93;12.77;;;8.40;99.90;;;;;;4995581;28;20180;-78
2023/04/25 09:21:57;;;;;;;11.23;10.40;;;8.50;99.90;;;;;;4996293;28;20580;-77
2023/04/25 09:24:50;;;;;;;12.47;11.47;;;8.50;99.90;;;;;;4993571;28;20192;-78
2023/04/25 09:27:24;;;;;;;11.07;10.17;;;8.60;99.90;;;;;;5018063;28;20243;-77
2023/04/25 09:30:00;;;;;;;12.47;11.50;;;8.70;99.90;;;;;;5000079;28;20645;-77
2023/04/25 09:32:26;;;;;;;14.03;12.73;;;8.90;99.90;;;;;;4984306;28;20203;-77
2023/04/25 09:34:55;;;;;;;16.83;15.63;;;9.00;99.90;;;;;;4983962;28;20203;-77
2023/04/25 09:37:22;;;;;;;20.97;19.40;;;9.00;99.90;;;;;;4983762;28;20204;-77
2023/04/25 09:39:49;;;;;;;20.73;19.20;;;9.00;99.90;;;;;;4975026;28;20639;-77
2023/04/25 09:42:16;;;;;;;22.27;20.77;;;9.10;99.90;;;;;;4974819;28;20196;-77
2023/04/25 09:44:44;;;;;;;22.20;20.80;;;9.20;99.90;;;;;;4973970;28;20201;-77
2023/04/25 09:47:17;;;;;;;23.30;21.73;;;9.30;99.90;;;;;;4974910;28;20256;-77
2023/04/25 09:49:43;;;;;;;10.50;9.57;;;9.40;99.90;;;;;;4975621;28;20712;-77
2023/04/25 09:52:15;;;;;;;11.87;10.87;;;9.40;99.90;;;;;;4988891;28;20218;-77
2023/04/25 09:54:41;;;;;;;13.10;12.03;;;9.60;99.90;;;;;;4982665;28;20676;-77
2023/04/25 09:57:12;;;;;;;23.30;22.00;;;9.70;99.90;;;;;;4973246;28;20218;-77
2023/04/25 10:00:08;;;;;;;32.50;30.67;;;9.70;99.90;;;;;;4973293;28;20599;-77
2023/04/25 10:02:35;;;;;;;11.47;10.77;;;9.70;99.90;;;;;;4971662;28;20677;-77
2023/04/25 10:05:06;;;;;;;12.00;11.03;;;9.90;99.90;;;;;;4982669;28;20187;-77
2023/04/25 10:07:37;;;;;;;23.07;21.17;;;9.90;99.90;;;;;;4992016;28;20230;-77
2023/04/25 10:10:05;;;;;;;21.10;19.60;;;10.00;99.90;;;;;;4988200;28;20200;-77
2023/04/25 10:12:33;;;;;;;22.47;21.07;;;10.10;99.90;;;;;;4980720;28;20239;-76
2023/04/25 10:15:00;;;;;;;21.83;20.50;;;10.10;99.90;;;;;;4992792;28;20208;-77
2023/04/25 10:17:28;;;;;;;24.20;22.87;;;10.10;99.90;;;;;;4992332;28;20216;-77
2023/04/25 10:19:55;;;;;;;22.20;20.70;;;10.20;99.90;;;;;;4993316;28;20267;-77
2023/04/25 10:22:37;;;;;;;30.50;28.70;;;10.30;99.90;;;;;;4993146;28;20816;-77
2023/04/25 10:25:04;;;;;;;34.03;31.93;;;10.50;99.90;;;;;;4992749;28;20238;-76
2023/04/25 10:27:31;;;;;;;22.50;21.10;;;10.70;99.90;;;;;;4991597;28;20253;-77
2023/04/25 10:30:10;;;;;;;10.40;9.57;;;10.60;99.90;;;;;;4991816;28;20192;-76
2023/04/25 10:32:37;;;;;;;9.03;8.33;;;10.40;99.90;;;;;;4991402;28;20295;-76
2023/04/25 10:35:17;;;;;;;21.53;20.40;;;10.10;99.90;;;;;;4991399;28;20180;-77
2023/04/25 10:38:02;;;;;;;22.07;20.87;;;10.00;99.90;;;;;;4991428;28;20211;-77
2023/04/25 10:40:28;;;;;;;8.83;8.33;;;9.80;99.90;;;;;;4991247;28;20183;-76
2023/04/25 10:42:55;;;;;;;12.80;12.00;;;9.80;99.90;;;;;;4991408;28;20184;-77
2023/04/25 10:45:21;;;;;;;18.23;17.20;;;9.60;99.90;;;;;;4992938;28;20235;-77
2023/04/25 10:47:48;;;;;;;12.73;11.80;;;9.40;99.90;;;;;;4991696;28;20208;-77
2023/04/25 10:50:17;;;;;;;27.37;25.77;;;9.20;99.90;;;;;;4993517;28;20194;-77
2023/04/25 10:52:44;;;;;;;16.33;15.37;;;9.10;99.90;;;;;;4985722;28;20269;-77
2023/04/25 10:55:10;;;;;;;11.00;10.30;;;9.00;99.90;;;;;;4972103;28;20215;-77
2023/04/25 10:57:43;;;;;;;16.93;15.70;;;8.70;99.90;;;;;;4975905;28;20201;-77
2023/04/25 11:00:18;;;;;;;103.10;97.63;;;8.60;99.90;;;;;;4975695;28;20181;-76
2023/04/25 11:02:51;;;;;;;52.53;49.17;;;8.40;99.90;;;;;;4973286;28;20186;-78
2023/04/25 11:05:34;;;;;;;14.87;13.80;;;8.00;99.90;;;;;;4973090;28;20185;-78
2023/04/25 11:08:00;;;;;;;7.33;6.80;;;7.30;99.90;;;;;;4974128;28;20216;-78
2023/04/25 11:10:35;;;;;;;11.77;10.03;;;6.70;99.90;;;;;;4973898;28;20645;-77
2023/04/25 11:13:01;;;;;;;14.50;13.37;;;6.60;99.90;;;;;;4972829;28;20211;-77
2023/04/25 11:15:28;;;;;;;13.60;12.70;;;6.60;99.90;;;;;;4973083;28;20197;-78
2023/04/25 11:17:54;;;;;;;20.83;19.50;;;6.70;99.90;;;;;;4974379;28;20296;-79
2023/04/25 11:20:22;;;;;;;17.47;16.30;;;6.80;99.90;;;;;;4975285;28;20259;-79
2023/04/25 11:22:48;;;;;;;22.53;21.03;;;7.00;99.90;;;;;;4973948;28;20256;-78
2023/04/25 11:25:15;;;;;;;24.40;22.77;;;7.20;99.90;;;;;;4973556;28;20389;-79
2023/04/25 11:27:51;;;;;;;35.63;33.27;;;7.40;99.90;;;;;;4979488;28;20692;-79
2023/04/25 11:30:18;;;;;;;38.23;35.63;;;7.50;99.90;;;;;;4986769;28;20184;-78
2023/04/25 11:32:43;;;;;;;36.23;33.80;;;7.60;99.90;;;;;;4978066;28;20204;-79
2023/04/25 11:35:10;;;;;;;37.50;34.70;;;7.60;99.90;;;;;;4993030;28;20757;-78
2023/04/25 11:37:36;;;;;;;25.50;23.87;;;7.60;99.90;;;;;;4993728;28;20196;-78
2023/04/25 11:40:09;;;;;;;24.73;23.20;;;7.70;99.90;;;;;;4994335;28;20412;-78
2023/04/25 11:42:39;;;;;;;12.17;11.20;;;7.80;99.90;;;;;;4993910;28;20187;-78
2023/04/25 11:45:06;;;;;;;30.10;28.30;;;7.70;99.90;;;;;;4993195;28;20184;-77
2023/04/25 11:47:33;;;;;;;25.63;24.03;;;7.70;99.90;;;;;;4992765;28;20208;-77
2023/04/25 11:50:00;;;;;;;25.87;24.10;;;7.80;99.90;;;;;;4997262;28;20184;-77
2023/04/25 11:52:43;;;;;;;20.50;19.10;;;7.80;99.90;;;;;;4997251;28;20218;-78
2023/04/25 11:55:12;;;;;;;33.70;31.60;;;7.80;99.90;;;;;;4994262;28;20186;-78
2023/04/25 11:57:40;;;;;;;30.73;29.03;;;7.80;99.90;;;;;;4993685;28;20192;-78
2023/04/25 12:00:13;;;;;;;30.83;28.90;;;7.90;99.90;;;;;;4994201;28;20211;-79
2023/04/25 12:02:57;;;;;;;15.73;14.23;;;7.90;99.90;;;;;;4992709;28;20184;-79
2023/04/25 12:05:33;;;;;;;28.83;27.07;;;8.10;99.90;;;;;;4993383;28;20242;-79
2023/04/25 12:08:14;;;;;;;59.63;56.27;;;8.10;99.90;;;;;;4996334;28;20232;-79
2023/04/25 12:10:41;;;;;;;30.93;29.17;;;8.30;99.90;;;;;;4994427;28;20180;-78
2023/04/25 12:13:27;;;;;;;26.97;25.23;;;8.40;99.90;;;;;;4991665;28;20210;-78
2023/04/25 12:15:57;;;;;;;35.13;32.83;;;8.70;99.90;;;;;;4992725;28;20227;-77
2023/04/25 12:18:29;;;;;;;10.60;9.90;;;8.80;99.90;;;;;;4993112;28;20181;-78
2023/04/25 12:20:55;;;;;;;10.60;9.70;;;8.90;99.90;;;;;;4992136;28;20185;-77
2023/04/25 12:23:28;;;;;;;14.60;13.83;;;9.20;99.90;;;;;;4976982;28;20188;-76
2023/04/25 12:25:54;;;;;;;16.33;15.20;;;9.40;99.90;;;;;;4985491;28;20192;-76
2023/04/25 12:28:26;;;;;;;27.30;25.87;;;9.80;99.90;;;;;;4975778;28;20185;-78
2023/04/25 12:30:59;;;;;;;17.73;16.73;;;10.00;99.90;;;;;;4973098;28;20207;-78
2023/04/25 12:33:27;;;;;;;18.73;17.43;;;10.50;99.90;;;;;;4975642;28;20267;-77
2023/04/25 12:35:55;;;;;;;18.47;17.40;;;11.30;99.90;;;;;;4976702;28;20243;-77
2023/04/25 12:38:26;;;;;;;15.77;14.77;;;12.20;99.90;;;;;;4976571;28;20189;-78
2023/04/25 12:40:53;;;;;;;15.87;15.03;;;12.60;99.90;;;;;;4979717;28;20715;-77
2023/04/25 12:43:19;;;;;;;13.93;13.10;;;12.80;99.90;;;;;;4981487;28;20248;-77
2023/04/25 12:45:50;;;;;;;6.70;6.23;;;13.10;99.90;;;;;;4988187;28;20185;-77
2023/04/25 12:48:15;;;;;;;15.53;14.53;;;13.20;99.90;;;;;;4975118;28;20223;-77
2023/04/25 12:50:42;;;;;;;11.80;11.03;;;13.10;99.90;;;;;;4976588;28;20210;-77
2023/04/25 12:53:08;;;;;;;7.73;7.13;;;12.80;99.90;;;;;;4976688;28;20263;-77
2023/04/25 12:55:34;;;;;;;10.07;9.47;;;12.10;99.90;;;;;;4975412;28;20637;-77
2023/04/25 12:57:59;;;;;;;14.63;13.77;;;11.50;99.90;;;;;;4977203;28;20719;-77
2023/04/25 13:00:26;;;;;;;5.60;5.30;;;10.90;99.90;;;;;;4979874;28;20177;-77
2023/04/25 13:02:52;;;;;;;20.77;19.60;;;10.50;99.90;;;;;;4978007;28;20272;-77
2023/04/25 13:05:17;;;;;;;62.03;58.80;;;10.30;99.90;;;;;;4977094;28;20284;-78
2023/04/25 13:07:43;;;;;;;8.50;8.00;;;10.40;99.90;;;;;;4975163;28;20204;-78
2023/04/25 13:10:10;;;;;;;6.63;6.23;;;10.50;99.90;;;;;;4976645;28;20212;-77
2023/04/25 13:12:36;;;;;;;6.10;5.70;;;10.80;99.90;;;;;;4976013;28;20304;-77
2023/04/25 13:15:02;;;;;;;9.43;8.87;;;11.10;99.90;;;;;;4976753;28;20636;-78
2023/04/25 13:17:28;;;;;;;18.00;17.10;;;11.30;99.90;;;;;;4975812;28;20317;-78
2023/04/25 13:19:53;;;;;;;21.27;20.17;;;11.30;99.90;;;;;;4976348;28;20208;-77
2023/04/25 13:22:20;;;;;;;23.33;22.17;;;11.40;99.90;;;;;;4987958;28;20247;-78
2023/04/25 13:24:46;;;;;;;5.07;4.73;;;11.60;99.90;;;;;;4975549;28;20201;-78
2023/04/25 13:27:12;;;;;;;17.70;16.70;;;11.70;99.90;;;;;;4975542;28;20739;-78
2023/04/25 13:29:40;;;;;;;29.40;27.90;;;12.00;99.90;;;;;;4980464;28;20279;-78
2023/04/25 13:32:07;;;;;;;26.60;25.00;;;12.40;99.90;;;;;;4984324;28;20216;-78
2023/04/25 13:34:33;;;;;;;9.83;9.13;;;13.20;99.90;;;;;;4994986;28;20193;-77
2023/04/25 13:36:58;;;;;;;8.70;8.10;;;13.70;99.90;;;;;;4994260;28;20780;-77
2023/04/25 13:39:24;;;;;;;7.30;6.80;;;13.90;99.90;;;;;;4983289;28;20248;-76
2023/04/25 13:41:50;;;;;;;8.50;7.87;;;15.00;99.90;;;;;;4978305;28;20196;-79
2023/04/25 13:44:16;;;;;;;9.87;9.37;;;16.10;99.90;;;;;;4974687;28;20185;-78
2023/04/25 13:46:42;;;;;;;12.13;11.43;;;16.20;99.90;;;;;;4974634;28;20863;-77
2023/04/25 13:49:08;;;;;;;15.20;14.10;;;15.10;99.90;;;;;;4976531;28;20185;-77
2023/04/25 13:51:34;;;;;;;7.43;6.93;;;13.70;99.90;;;;;;4976290;28;20184;-78
2023/04/25 13:54:00;;;;;;;19.03;17.93;;;13.20;99.90;;;;;;4975936;28;20205;-78
2023/04/25 13:56:26;;;;;;;9.87;9.17;;;12.90;99.90;;;;;;4985018;28;20229;-77
2023/04/25 13:58:52;;;;;;;11.40;10.70;;;13.10;99.90;;;;;;5000031;28;20192;-78
2023/04/25 14:01:18;;;;;;;11.87;11.03;;;14.10;99.90;;;;;;4996648;28;20565;-78
2023/04/25 14:03:45;;;;;;;22.40;21.20;;;15.30;99.90;;;;;;4994723;28;20212;-78
2023/04/25 14:06:12;;;;;;;21.80;20.50;;;15.20;99.90;;;;;;4994095;28;20204;-78
2023/04/25 14:08:38;;;;;;;11.80;11.00;;;14.80;99.90;;;;;;4994929;28;20187;-78
2023/04/25 14:11:04;;;;;;;13.17;12.27;;;14.10;99.90;;;;;;4993443;28;20279;-77
2023/04/25 14:13:30;;;;;;;13.43;12.33;;;13.30;99.90;;;;;;4994036;28;20276;-78
2023/04/25 14:15:56;;;;;;;8.27;7.57;;;12.90;99.90;;;;;;4994309;28;20557;-78
2023/04/25 14:18:22;;;;;;;14.77;13.77;;;12.50;99.90;;;;;;4994266;28;20184;-77
2023/04/25 14:20:47;;;;;;;10.73;8.47;;;11.90;99.90;;;;;;4993107;28;20194;-76
2023/04/25 14:23:13;;;;;;;9.97;7.47;;;11.50;99.90;;;;;;4999364;28;20589;-79
2023/04/25 14:25:40;;;;;;;9.83;9.00;;;11.20;99.90;;;;;;4994450;28;20188;-78
2023/04/25 14:28:06;;;;;;;10.77;9.33;;;11.20;99.90;;;;;;4995394;28;20264;-78
2023/04/25 14:30:32;;;;;;;10.13;9.17;;;12.10;99.90;;;;;;4994221;28;20882;-77
2023/04/25 14:32:57;;;;;;;12.20;11.30;;;13.50;99.90;;;;;;4995256;28;20207;-77
2023/04/25 14:35:23;;;;;;;10.33;9.67;;;15.00;99.90;;;;;;4994672;28;20228;-78
2023/04/25 14:37:49;;;;;;;13.70;12.67;;;15.50;99.90;;;;;;4993658;28;20200;-78
2023/04/25 14:40:16;;;;;;;25.13;23.37;;;16.10;99.90;;;;;;4994433;28;20660;-78
2023/04/25 14:42:42;;;;;;;9.77;8.97;;;17.00;99.90;;;;;;4994799;28;20423;-78
2023/04/25 14:45:08;;;;;;;8.17;7.47;;;18.10;99.90;;;;;;4993220;28;20638;-78
2023/04/25 14:47:38;;;;;;;7.90;7.33;;;19.00;99.90;;;;;;4994346;28;20204;-78
2023/04/25 14:50:05;;;;;;;8.73;8.03;;;18.80;99.90;;;;;;4993079;28;20718;-78
2023/04/25 14:52:31;;;;;;;10.23;9.23;;;19.00;99.90;;;;;;5006394;28;20208;-78
2023/04/25 14:54:57;;;;;;;9.77;8.20;;;18.90;99.90;;;;;;5002223;28;20180;-77
2023/04/25 14:57:22;;;;;;;9.07;7.83;;;18.10;99.90;;;;;;5001492;28;20251;-78
2023/04/25 14:59:48;;;;;;;10.17;9.23;;;17.20;99.90;;;;;;4993886;28;20180;-78
2023/04/25 15:02:14;;;;;;;11.83;10.73;;;17.00;99.90;;;;;;4994562;28;20246;-78
2023/04/25 15:04:40;;;;;;;15.50;12.03;;;16.50;99.90;;;;;;4993637;28;20645;-77
2023/04/25 15:07:05;;;;;;;15.50;13.87;;;16.20;99.90;;;;;;4995297;28;20679;-78
2023/04/25 15:09:31;;;;;;;17.73;16.00;;;16.30;99.90;;;;;;5001844;28;20212;-77
2023/04/25 15:11:58;;;;;;;9.93;8.93;;;16.70;99.90;;;;;;4996419;28;20184;-76
2023/04/25 15:14:24;;;;;;;9.23;8.40;;;16.80;99.90;;;;;;4991903;28;20222;-77
2023/04/25 15:16:49;;;;;;;8.67;7.93;;;17.10;99.90;;;;;;5007157;23;20233;-73
2023/04/25 15:19:15;;;;;;;11.63;10.50;;;17.70;99.90;;;;;;4973735;28;20188;-73
2023/04/25 15:21:41;;;;;;;9.87;8.90;;;16.60;99.90;;;;;;4971443;28;20649;-72
2023/04/25 15:24:07;;;;;;;9.47;8.53;;;15.60;99.90;;;;;;4988058;28;20283;-73
2023/04/25 15:26:33;;;;;;;8.93;8.03;;;16.70;99.90;;;;;;4990592;28;20212;-73
2023/04/25 15:28:58;;;;;;;9.53;8.83;;;17.30;99.90;;;;;;4990286;28;20188;-76
2023/04/25 15:31:24;;;;;;;9.70;8.90;;;17.00;99.90;;;;;;4990244;28;20180;-76
2023/04/25 15:33:50;;;;;;;8.57;7.87;;;15.50;99.90;;;;;;4994023;28;20327;-76
2023/04/25 15:36:18;;;;;;;23.90;22.33;;;14.10;99.90;;;;;;4991098;28;20181;-76
2023/04/25 15:38:44;;;;;;;24.93;23.37;;;13.10;99.90;;;;;;4990841;28;20196;-75